Time;durP1;ratioP1;P1;durP2;ratioP2;P2;SDS_P1;SDS_P2;PMS_P1;PMS_P2;Temp;Humidity;BMP_temperature;BMP_pressure;BME280_temperature;BME280_humidity;BME280_pressure;Samples;Min_cycle;Max_cycle;Signal;HPM_P1;HPM_P2
2020/12/18 00:00:27;;;;;;;24.73;10.32;;;;;;;6.92;100.00;102014.78;10403916;28;20067;-76
2020/12/18 00:05:32;;;;;;;20.95;9.20;;;;;;;6.67;100.00;101982.03;10393513;28;20478;-77
2020/12/18 00:10:32;;;;;;;20.95;10.32;;;;;;;6.91;99.74;102015.88;10392406;28;20383;-76
2020/12/18 00:15:33;;;;;;;19.08;9.07;;;;;;;6.86;100.00;102010.63;10382150;28;20049;-77
2020/12/18 00:20:34;;;;;;;20.52;9.02;;;;;;;6.81;100.00;101991.94;10378146;28;20048;-77
2020/12/18 00:25:35;;;;;;;20.65;9.45;;;;;;;6.15;100.00;101906.41;10380021;28;20053;-77
2020/12/18 00:30:35;;;;;;;21.33;9.90;;;;;;;6.20;100.00;101902.81;10373483;28;20041;-77
2020/12/18 00:35:36;;;;;;;25.17;11.10;;;;;;;6.56;100.00;101953.78;10385084;28;20042;-77
2020/12/18 00:40:36;;;;;;;23.25;10.75;;;;;;;6.80;100.00;101995.72;10368933;28;20037;-77
2020/12/18 00:45:39;;;;;;;29.35;10.55;;;;;;;6.70;100.00;101986.81;10365583;28;20045;-77
2020/12/18 00:50:40;;;;;;;23.95;10.88;;;;;;;6.82;100.00;101993.50;10398538;28;20033;-77
2020/12/18 00:55:40;;;;;;;23.08;10.88;;;;;;;6.81;100.00;101991.94;10395992;28;20045;-77
2020/12/18 01:00:41;;;;;;;23.70;10.70;;;;;;;6.29;100.00;101909.81;10385278;28;20485;-75
2020/12/18 01:05:41;;;;;;;32.92;10.45;;;;;;;6.53;100.00;101922.19;10383825;28;20052;-78
2020/12/18 01:10:42;;;;;;;23.05;10.52;;;;;;;6.83;100.00;101962.88;10396224;28;20046;-75
2020/12/18 01:15:42;;;;;;;22.35;9.85;;;;;;;6.80;100.00;101974.22;10401907;28;20045;-78
2020/12/18 01:20:45;;;;;;;26.17;11.48;;;;;;;6.50;100.00;101906.69;10393350;28;20068;-78
2020/12/18 01:25:45;;;;;;;26.33;10.38;;;;;;;6.71;100.00;101961.50;10349136;28;20038;-75
2020/12/18 01:30:46;;;;;;;21.55;9.43;;;;;;;6.77;100.00;101971.06;10370026;28;20128;-76
2020/12/18 01:35:47;;;;;;;29.90;12.32;;;;;;;6.56;100.00;101964.53;10386540;28;20053;-75
2020/12/18 01:40:47;;;;;;;26.65;11.93;;;;;;;6.52;100.00;101947.47;10386720;28;20471;-75
2020/12/18 01:45:48;;;;;;;17.38;9.98;;;;;;;6.50;100.00;101923.59;10390994;28;20068;-75
2020/12/18 01:50:48;;;;;;;22.35;10.20;;;;;;;6.54;100.00;101934.53;10397744;28;20394;-75
2020/12/18 01:55:49;;;;;;;27.75;10.18;;;;;;;6.81;100.00;101986.56;10371636;28;20041;-75
2020/12/18 02:00:50;;;;;;;23.40;9.55;;;;;;;6.62;100.00;101947.22;10373292;28;20088;-76
2020/12/18 02:05:53;;;;;;;23.33;9.20;;;;;;;6.32;100.00;101922.63;10383448;28;20116;-76
2020/12/18 02:10:55;;;;;;;23.08;8.90;;;;;;;6.57;100.00;101928.53;10389187;28;20048;-76
2020/12/18 02:15:56;;;;;;;23.00;8.80;;;;;;;6.82;100.00;101955.88;10379968;28;20037;-76
2020/12/18 02:21:01;;;;;;;29.42;9.77;;;;;;;6.61;100.00;101918.78;10409083;28;20048;-77
2020/12/18 02:26:09;;;;;;;26.48;10.05;;;;;;;6.98;100.00;101949.03;10395282;28;20131;-76
2020/12/18 02:31:10;;;;;;;19.38;8.52;;;;;;;6.95;100.00;101941.59;10384891;28;20033;-76
2020/12/18 02:36:12;;;;;;;21.10;9.80;;;;;;;6.16;100.00;101827.44;10401237;28;20049;-77
2020/12/18 02:41:13;;;;;;;24.05;9.70;;;;;;;6.89;100.00;101950.88;10403796;28;20095;-76
2020/12/18 02:46:13;;;;;;;20.85;9.70;;;;;;;6.94;100.00;101953.47;10375647;28;20038;-75
2020/12/18 02:51:14;;;;;;;24.50;10.50;;;;;;;6.92;100.00;101950.28;10407288;28;20049;-77
2020/12/18 02:56:25;;;;;;;33.55;10.32;;;;;;;6.81;100.00;101938.19;10385320;28;20130;-76
2020/12/18 03:01:26;;;;;;;23.55;9.98;;;;;;;6.52;100.00;101896.44;10387735;28;20089;-75
2020/12/18 03:06:26;;;;;;;23.23;9.88;;;;;;;6.29;100.00;101842.69;10383299;28;20175;-75
2020/12/18 03:11:27;;;;;;;27.83;10.60;;;;;;;6.33;100.00;101832.94;10391835;28;20120;-76
2020/12/18 03:16:27;;;;;;;26.40;11.18;;;;;;;6.89;100.00;101934.75;10398363;28;20044;-76
2020/12/18 03:21:30;;;;;;;23.60;10.02;;;;;;;6.55;100.00;101882.38;10401407;28;20052;-78
2020/12/18 03:26:30;;;;;;;;;;;;;;;6.91;100.00;101937.94;10407329;28;20091;-78
2020/12/18 03:31:32;;;;;;;27.20;9.80;;;;;;;6.70;100.00;101902.69;10372741;28;20290;-75
2020/12/18 03:36:36;;;;;;;21.92;9.45;;;;;;;6.86;100.00;101930.00;10395990;28;20041;-76
2020/12/18 03:41:36;;;;;;;28.23;10.02;;;;;;;6.86;100.00;101935.38;10370847;28;20043;-76
2020/12/18 03:46:37;;;;;;;30.70;9.45;;;;;;;6.82;100.00;101912.88;10361346;28;20049;-76
2020/12/18 03:51:37;;;;;;;24.52;9.45;;;;;;;6.86;100.00;101924.63;10399720;28;20037;-75
2020/12/18 03:56:38;;;;;;;24.17;8.43;;;;;;;6.91;100.00;101933.34;10391922;28;20098;-76
2020/12/18 04:01:38;;;;;;;22.52;8.35;;;;;;;6.62;100.00;101872.00;10367301;28;20041;-77
2020/12/18 04:06:38;;;;;;;20.33;7.65;;;;;;;6.93;100.00;101915.00;10391321;28;20045;-76
2020/12/18 04:11:41;;;;;;;20.88;7.72;;;;;;;6.84;100.00;101894.56;10389562;28;20091;-77
2020/12/18 04:16:42;;;;;;;22.40;8.50;;;;;;;6.69;100.00;101877.72;10403648;28;20033;-77
2020/12/18 04:21:42;;;;;;;24.20;9.73;;;;;;;6.70;100.00;101857.84;10373657;28;20046;-77
2020/12/18 04:26:43;;;;;;;20.08;9.70;;;;;;;6.66;100.00;101856.84;10380864;28;20029;-76
2020/12/18 04:31:43;;;;;;;29.38;10.20;;;;;;;6.93;100.00;101908.84;10398920;28;20033;-77
2020/12/18 04:36:44;;;;;;;21.95;9.23;;;;;;;7.04;100.00;101904.00;10364568;28;20042;-77
2020/12/18 04:41:44;;;;;;;21.10;9.90;;;;;;;6.92;100.00;101875.81;10355711;28;20046;-77
2020/12/18 04:46:45;;;;;;;28.17;10.30;;;;;;;6.92;100.00;101869.63;10389484;28;20041;-77
2020/12/18 04:51:45;;;;;;;21.48;8.90;;;;;;;6.67;100.00;101831.56;10372349;28;20776;-77
2020/12/18 04:56:50;;;;;;;20.40;8.25;;;;;;;6.91;100.00;101862.66;10375125;28;20033;-77
2020/12/18 05:01:57;;;;;;;21.67;8.95;;;;;;;6.60;100.00;101831.19;10367904;28;20046;-76
2020/12/18 05:06:57;;;;;;;22.33;9.27;;;;;;;6.76;100.00;101851.22;10361974;28;20053;-76
2020/12/18 05:12:05;;;;;;;24.92;10.95;;;;;;;6.50;100.00;101810.75;10384688;28;20045;-76
2020/12/18 05:17:07;;;;;;;38.00;14.35;;;;;;;6.66;100.00;101846.09;10391152;28;20029;-76
2020/12/18 05:22:09;;;;;;;29.05;13.23;;;;;;;6.74;100.00;101856.09;10396410;28;20037;-78
2020/12/18 05:27:14;;;;;;;32.33;12.98;;;;;;;6.89;100.00;101854.09;10343761;28;20580;-76
2020/12/18 05:32:15;;;;;;;23.95;12.60;;;;;;;6.96;100.00;101867.91;10358492;28;20061;-76
2020/12/18 05:37:16;;;;;;;23.65;10.30;;;;;;;7.05;100.00;101847.22;10376744;28;20049;-75
2020/12/18 05:42:19;;;;;;;20.40;10.35;;;;;;;6.99;100.00;101843.09;10374629;28;20049;-76
2020/12/18 05:47:20;;;;;;;20.67;10.15;;;;;;;6.93;100.00;101820.13;10396210;28;20072;-76
2020/12/18 05:52:21;;;;;;;29.65;12.10;;;;;;;7.17;100.00;101850.16;10383460;28;20393;-74
2020/12/18 05:57:21;;;;;;;24.15;12.15;;;;;;;7.25;100.00;101877.38;10386167;28;20405;-76
2020/12/18 06:02:22;;;;;;;23.23;11.77;;;;;;;7.36;100.00;101881.34;10406390;28;20130;-78
2020/12/18 06:07:23;;;;;;;23.52;11.18;;;;;;;7.38;100.00;101881.84;10388457;28;20115;-78
2020/12/18 06:12:24;;;;;;;20.15;10.25;;;;;;;7.25;100.00;101853.19;10375451;28;20582;-78
2020/12/18 06:17:28;;;;;;;23.02;11.10;;;;;;;7.38;100.00;101865.69;10396784;28;20053;-77
2020/12/18 06:22:29;;;;;;;24.92;11.57;;;;;;;7.33;100.00;101852.41;10395179;28;20044;-78
2020/12/18 06:27:29;;;;;;;15.30;9.23;;;;;;;7.34;100.00;101859.38;10393057;28;20048;-78
2020/12/18 06:32:33;;;;;;;18.58;9.77;;;;;;;7.46;100.00;101886.47;10389630;28;20076;-78
2020/12/18 06:37:36;;;;;;;23.73;10.50;;;;;;;7.33;100.00;101847.00;10404604;28;20037;-78
2020/12/18 06:42:45;;;;;;;22.42;10.25;;;;;;;7.51;100.00;101883.63;10402083;28;20041;-77
2020/12/18 06:47:45;;;;;;;20.40;10.85;;;;;;;7.60;100.00;101873.69;10406424;28;20794;-77
2020/12/18 06:53:04;;;;;;;19.85;10.57;;;;;;;7.28;100.00;101818.38;10412539;28;20045;-78
2020/12/18 06:58:16;;;;;;;21.35;11.35;;;;;;;7.18;99.80;101806.00;10390459;28;20045;-78
2020/12/18 07:03:32;;;;;;;24.77;11.13;;;;;;;7.53;99.56;101861.81;10406077;28;20042;-76
2020/12/18 07:08:40;;;;;;;19.05;10.45;;;;;;;7.59;99.71;101871.28;10392105;28;20372;-77
2020/12/18 07:13:46;;;;;;;25.95;11.27;;;;;;;6.84;99.04;101749.44;10386527;28;20128;-75
2020/12/18 07:18:50;;;;;;;21.30;10.73;;;;;;;7.74;99.09;101883.53;10392733;28;20095;-76
2020/12/18 07:23:54;;;;;;;20.50;10.70;;;;;;;7.81;99.38;101886.56;10405816;28;20049;-76
2020/12/18 07:28:55;;;;;;;20.02;9.48;;;;;;;7.52;98.40;101855.59;10371753;28;20037;-77
2020/12/18 07:33:57;;;;;;;19.98;9.02;;;;;;;7.57;97.68;101863.56;10408510;28;20045;-79
2020/12/18 07:38:58;;;;;;;18.23;8.43;;;;;;;7.62;97.14;101860.72;10381538;28;20073;-78
2020/12/18 07:44:05;;;;;;;16.60;7.65;;;;;;;7.93;95.88;101902.88;10379551;28;20049;-78
2020/12/18 07:49:12;;;;;;;15.02;7.45;;;;;;;7.79;95.98;101886.06;10369329;28;20096;-77
2020/12/18 07:54:16;;;;;;;15.23;7.45;;;;;;;7.54;96.15;101842.63;10389275;28;20048;-77
2020/12/18 07:59:17;;;;;;;16.42;7.63;;;;;;;7.49;96.37;101834.72;10391928;28;20486;-77
2020/12/18 08:04:18;;;;;;;16.15;7.80;;;;;;;8.04;96.28;101909.56;10374128;28;20041;-77
2020/12/18 08:09:19;;;;;;;17.83;8.60;;;;;;;7.93;96.57;101875.94;10391669;28;20109;-75
2020/12/18 08:14:19;;;;;;;17.75;7.75;;;;;;;8.17;95.71;101885.47;10408678;28;20051;-75
2020/12/18 08:19:23;;;;;;;17.00;7.93;;;;;;;8.12;96.22;101877.56;10389499;28;20076;-76
2020/12/18 08:24:27;;;;;;;13.95;6.93;;;;;;;7.94;95.62;101849.81;10400764;28;20043;-75
2020/12/18 08:29:31;;;;;;;16.00;7.13;;;;;;;7.99;95.11;101847.75;10390609;28;20045;-77
2020/12/18 08:34:34;;;;;;;16.73;7.18;;;;;;;8.00;94.90;101848.56;10388583;28;20045;-77
2020/12/18 08:39:35;;;;;;;18.10;6.43;;;;;;;8.34;94.93;101896.22;10407641;28;20128;-77
2020/12/18 08:44:43;;;;;;;16.02;6.40;;;;;;;8.56;93.50;101897.19;10371730;28;20502;-77
2020/12/18 08:49:44;;;;;;;18.13;5.93;;;;;;;7.73;93.62;101763.50;10407765;28;20028;-77
2020/12/18 08:54:44;;;;;;;17.70;5.88;;;;;;;8.63;93.58;101902.88;10410292;28;20041;-78
2020/12/18 09:00:04;;;;;;;16.05;6.05;;;;;;;8.63;93.28;101892.09;10386369;28;20501;-78
2020/12/18 09:05:21;;;;;;;13.55;5.63;;;;;;;8.28;92.41;101822.09;10400187;28;20137;-76
2020/12/18 09:10:38;;;;;;;11.95;4.97;;;;;;;8.73;92.19;101881.00;10383280;28;20061;-76
2020/12/18 09:15:39;;;;;;;13.43;5.03;;;;;;;8.89;91.63;101884.78;10402805;28;20405;-77
2020/12/18 09:20:44;;;;;;;11.13;4.93;;;;;;;8.64;91.95;101861.38;10400087;28;20041;-77
2020/12/18 09:25:49;;;;;;;13.65;5.00;;;;;;;8.83;91.49;101896.84;10401394;28;20506;-76
2020/12/18 09:30:49;;;;;;;12.75;4.10;;;;;;;9.20;90.10;101894.50;10386816;28;20065;-77
2020/12/18 09:36:09;;;;;;;8.98;4.05;;;;;;;9.58;87.05;101882.88;10399912;28;20486;-78
2020/12/18 09:41:11;;;;;;;10.20;3.60;;;;;;;9.28;88.01;101869.38;10385970;28;20116;-77
2020/12/18 09:46:18;;;;;;;15.83;3.83;;;;;;;9.17;89.41;101878.97;10385283;28;20045;-77
2020/12/18 09:51:18;;;;;;;15.60;4.00;;;;;;;9.26;88.88;101879.69;10370012;28;20040;-77
2020/12/18 09:56:21;;;;;;;15.48;4.13;;;;;;;9.14;89.86;101868.81;10388700;28;20046;-77
2020/12/18 10:01:23;;;;;;;14.50;4.07;;;;;;;8.99;89.59;101850.47;10400880;28;20051;-75
2020/12/18 10:06:25;;;;;;;11.90;3.67;;;;;;;9.33;89.96;101903.47;10402794;28;20183;-76
2020/12/18 10:11:29;;;;;;;12.70;3.17;;;;;;;9.16;89.27;101861.19;10383907;28;20307;-76
2020/12/18 10:16:29;;;;;;;15.30;3.33;;;;;;;9.30;88.63;101861.75;10399245;28;20455;-76
2020/12/18 10:21:35;;;;;;;10.48;3.45;;;;;;;9.27;88.68;101830.03;10390010;28;20090;-79
2020/12/18 10:26:38;;;;;;;14.30;3.53;;;;;;;9.45;88.12;101829.91;10390294;28;20032;-76
2020/12/18 10:31:38;;;;;;;13.95;3.15;;;;;;;9.49;87.73;101814.66;10400580;28;20083;-77
2020/12/18 10:36:39;;;;;;;11.27;2.83;;;;;;;9.34;87.94;101807.16;10380931;28;20044;-77
2020/12/18 10:41:39;;;;;;;11.07;2.80;;;;;;;9.53;87.84;101812.91;10375269;28;20107;-76
2020/12/18 10:46:40;;;;;;;12.93;3.10;;;;;;;9.49;87.46;101793.84;10398976;28;20417;-77
2020/12/18 10:51:42;;;;;;;12.48;3.13;;;;;;;9.86;86.23;101795.97;10392830;28;20052;-77
2020/12/18 10:56:43;;;;;;;8.18;2.90;;;;;;;10.26;85.22;101792.75;10388695;28;20037;-77
2020/12/18 11:01:44;;;;;;;15.18;3.40;;;;;;;10.42;83.47;101774.81;10400212;28;20052;-77
2020/12/18 11:06:45;;;;;;;13.98;3.17;;;;;;;10.30;82.77;101739.63;10410932;28;20058;-77
2020/12/18 11:11:49;;;;;;;11.93;3.35;;;;;;;10.62;81.53;101783.19;10373144;28;20037;-76
2020/12/18 11:16:53;;;;;;;13.65;2.58;;;;;;;10.87;79.72;101773.97;10396401;28;20136;-77
2020/12/18 11:21:57;;;;;;;12.20;2.75;;;;;;;10.69;80.15;101756.38;10411098;28;20041;-76
2020/12/18 11:26:57;;;;;;;12.35;2.47;;;;;;;10.51;79.30;101697.09;10400549;28;20053;-76
2020/12/18 11:31:58;;;;;;;12.13;3.00;;;;;;;10.79;79.69;101731.56;10381272;28;20049;-77
2020/12/18 11:36:58;;;;;;;8.13;2.10;;;;;;;10.66;78.07;101675.94;10391080;28;20060;-77
2020/12/18 11:41:59;;;;;;;7.57;2.25;;;;;;;10.99;76.49;101695.50;10407482;28;20072;-75
2020/12/18 11:46:59;;;;;;;9.95;2.00;;;;;;;11.05;76.50;101687.13;10387342;28;20548;-75
2020/12/18 11:52:03;;;;;;;8.00;1.90;;;;;;;10.94;76.30;101671.38;10368726;28;20057;-76
2020/12/18 11:57:05;;;;;;;11.02;2.15;;;;;;;10.86;76.19;101653.34;10409759;28;20114;-77
2020/12/18 12:02:08;;;;;;;7.20;2.03;;;;;;;11.23;75.65;101699.28;10406111;28;20469;-76
2020/12/18 12:07:09;;;;;;;11.10;2.10;;;;;;;11.27;76.10;101711.00;10374789;28;20056;-77
2020/12/18 12:12:11;;;;;;;;;;;;;;;11.36;75.10;101692.72;10403440;28;20053;-77
2020/12/18 12:17:12;;;;;;;5.72;1.75;;;;;;;11.31;75.06;101674.00;10390439;28;19922;-76
2020/12/18 12:22:13;;;;;;;4.55;1.75;;;;;;;11.20;74.28;101624.19;10392880;28;20129;-76
2020/12/18 12:27:19;;;;;;;4.30;2.00;;;;;;;11.41;74.63;101673.50;10384578;28;20129;-76
2020/12/18 12:32:20;;;;;;;4.72;1.83;;;;;;;11.37;74.94;101640.13;10407118;28;20051;-77
2020/12/18 12:37:27;;;;;;;5.63;1.77;;;;;;;10.78;74.34;101538.78;10391291;28;20052;-76
2020/12/18 12:42:28;;;;;;;3.53;1.58;;;;;;;11.53;75.22;101620.44;10366570;28;20773;-75
2020/12/18 12:47:29;;;;;;;6.07;2.00;;;;;;;11.58;73.94;101628.31;10388792;28;20138;-76
2020/12/18 12:52:33;;;;;;;8.88;2.67;;;;;;;11.76;72.51;101607.91;10396565;28;20045;-77
2020/12/18 12:57:33;;;;;;;9.35;3.20;;;;;;;11.80;72.36;101592.50;10406270;28;20041;-76
2020/12/18 13:02:34;;;;;;;10.20;3.35;;;;;;;11.76;72.35;101586.22;10385019;28;20034;-75
2020/12/18 13:07:34;;;;;;;7.30;2.90;;;;;;;11.67;71.39;101588.31;10388909;28;20045;-74
2020/12/18 13:12:35;;;;;;;7.97;2.40;;;;;;;11.74;71.07;101593.91;10372492;28;20095;-76
2020/12/18 13:17:35;;;;;;;5.18;2.33;;;;;;;11.76;71.55;101593.59;10378462;28;20045;-75
2020/12/18 13:22:36;;;;;;;6.95;1.92;;;;;;;11.25;71.02;101556.28;10383457;28;20489;-76
2020/12/18 13:27:37;;;;;;;9.45;2.92;;;;;;;11.48;71.31;101601.75;10363068;28;20123;-77
2020/12/18 13:32:37;;;;;;;6.20;2.20;;;;;;;11.50;71.88;101607.59;10394137;28;20045;-76
2020/12/18 13:37:38;;;;;;;7.88;1.92;;;;;;;11.22;71.46;101567.81;10356630;28;20568;-76
2020/12/18 13:42:39;;;;;;;5.88;2.38;;;;;;;11.05;72.23;101562.69;10368626;28;20403;-74
2020/12/18 13:47:41;;;;;;;4.57;1.95;;;;;;;11.14;73.17;101577.63;10376419;28;20454;-75
2020/12/18 13:52:43;;;;;;;3.70;1.30;;;;;;;10.54;72.20;101501.78;10361172;28;20041;-75
2020/12/18 13:57:43;;;;;;;3.95;1.55;;;;;;;11.11;73.41;101620.84;10361297;28;20126;-75
2020/12/18 14:02:43;;;;;;;4.72;1.23;;;;;;;11.15;73.00;101621.75;10387446;28;20452;-75
2020/12/18 14:07:44;;;;;;;7.22;1.35;;;;;;;10.71;73.14;101564.81;10387700;28;20100;-76
2020/12/18 14:12:47;;;;;;;4.68;1.27;;;;;;;10.67;74.01;101564.72;10377829;28;20556;-75
2020/12/18 14:17:47;;;;;;;2.38;1.10;;;;;;;10.85;74.62;101619.34;10386669;28;20045;-75
2020/12/18 14:22:48;;;;;;;8.55;1.08;;;;;;;10.97;74.44;101632.81;10385511;28;20091;-76
2020/12/18 14:27:49;;;;;;;3.47;1.20;;;;;;;10.86;74.34;101626.31;10375158;28;20148;-74
2020/12/18 14:32:49;;;;;;;6.28;1.40;;;;;;;10.83;75.01;101620.81;10358828;28;20144;-74
2020/12/18 14:37:52;;;;;;;5.47;1.83;;;;;;;10.82;74.83;101641.66;10412854;28;20043;-75
2020/12/18 14:42:53;;;;;;;2.97;1.10;;;;;;;10.86;74.31;101631.72;10398201;28;20198;-74
2020/12/18 14:47:54;;;;;;;5.35;1.23;;;;;;;10.53;75.26;101611.03;10378681;28;20061;-74
2020/12/18 14:52:54;;;;;;;4.80;1.25;;;;;;;10.74;74.64;101634.44;10401357;28;20499;-75
2020/12/18 14:57:55;;;;;;;5.80;1.20;;;;;;;10.65;73.93;101599.41;10375866;28;20045;-75
2020/12/18 15:02:58;;;;;;;3.08;1.00;;;;;;;10.84;73.41;101623.19;10390137;28;20041;-74
2020/12/18 15:07:59;;;;;;;3.28;1.10;;;;;;;10.70;73.77;101617.31;10392178;28;20057;-73
2020/12/18 15:12:59;;;;;;;5.15;1.40;;;;;;;10.74;73.67;101624.41;10378863;28;20037;-75
2020/12/18 15:18:00;;;;;;;3.40;1.10;;;;;;;10.70;72.89;101601.09;10366992;28;20065;-76
2020/12/18 15:23:01;;;;;;;4.70;1.70;;;;;;;10.67;73.33;101601.78;10391513;28;20136;-78
2020/12/18 15:28:01;;;;;;;10.55;1.90;;;;;;;10.73;73.05;101600.44;10386072;28;20553;-78
2020/12/18 15:33:04;;;;;;;8.18;1.98;;;;;;;10.45;73.92;101552.47;10401863;28;20041;-79
2020/12/18 15:38:05;;;;;;;4.90;1.73;;;;;;;10.56;73.71;101580.63;10384821;28;20044;-79
2020/12/18 15:43:05;;;;;;;5.90;1.73;;;;;;;10.40;74.53;101566.22;10383527;28;20065;-78
2020/12/18 15:48:06;;;;;;;8.82;1.65;;;;;;;10.21;73.36;101525.47;10369345;28;20049;-78
2020/12/18 15:53:09;;;;;;;5.95;2.13;;;;;;;9.60;74.58;101462.25;10382990;28;20404;-78
2020/12/18 15:58:15;;;;;;;3.45;1.52;;;;;;;10.35;74.24;101577.28;10396764;28;20447;-80
2020/12/18 16:03:16;;;;;;;4.85;2.10;;;;;;;9.81;75.11;101507.25;10367787;28;20046;-76
2020/12/18 16:08:19;;;;;;;4.47;1.98;;;;;;;10.25;75.39;101569.59;10374689;28;20089;-77
2020/12/18 16:13:20;;;;;;;3.95;1.58;;;;;;;10.22;75.23;101570.28;10372796;28;20132;-78
2020/12/18 16:18:21;;;;;;;5.47;1.80;;;;;;;9.85;75.05;101508.91;10389927;28;20067;-79
2020/12/18 16:23:22;;;;;;;2.78;1.50;;;;;;;10.27;75.51;101572.75;10337969;28;20504;-77
2020/12/18 16:28:25;;;;;;;5.90;1.80;;;;;;;9.38;75.39;101447.25;10371810;28;20160;-80
2020/12/18 16:33:25;;;;;;;3.88;1.55;;;;;;;10.21;75.67;101568.72;10388116;28;20044;-81
2020/12/18 16:38:26;;;;;;;9.50;1.63;;;;;;;10.13;75.34;101546.84;10384462;28;20107;-80
2020/12/18 16:43:28;;;;;;;4.10;1.85;;;;;;;10.22;75.59;101559.47;10381659;28;20049;-80
2020/12/18 16:48:29;;;;;;;4.63;1.58;;;;;;;9.66;75.72;101490.56;10367693;28;20052;-80
2020/12/18 16:53:29;;;;;;;4.63;2.10;;;;;;;10.06;75.73;101552.03;10364136;28;20075;-78
2020/12/18 16:58:30;;;;;;;4.65;1.98;;;;;;;10.01;75.77;101544.16;10374965;28;20073;-76
2020/12/18 17:03:30;;;;;;;5.97;1.88;;;;;;;10.03;75.81;101531.09;10391994;28;20067;-76
2020/12/18 17:08:31;;;;;;;5.00;1.95;;;;;;;9.13;75.95;101418.69;10377468;28;20049;-76
2020/12/18 17:13:31;;;;;;;5.60;1.83;;;;;;;9.38;75.40;101446.47;10378573;28;20111;-77
2020/12/18 17:18:33;;;;;;;6.63;2.40;;;;;;;9.83;75.70;101507.69;10374217;28;20098;-77
2020/12/18 17:23:33;;;;;;;10.50;4.80;;;;;;;9.79;75.94;101526.50;10385535;28;20049;-75
2020/12/18 17:28:34;;;;;;;8.50;2.58;;;;;;;9.71;76.21;101511.16;10378655;28;20042;-76
2020/12/18 17:33:35;;;;;;;6.22;3.00;;;;;;;9.77;77.04;101519.84;10386087;28;20060;-77
2020/12/18 17:38:36;;;;;;;8.52;2.97;;;;;;;9.85;76.95;101540.53;10353764;28;20425;-76
2020/12/18 17:43:36;;;;;;;5.70;2.90;;;;;;;9.95;76.82;101550.91;10357376;28;20042;-76
2020/12/18 17:48:37;;;;;;;6.38;3.40;;;;;;;9.56;77.32;101501.81;10390792;28;20049;-76
2020/12/18 17:53:37;;;;;;;6.28;2.75;;;;;;;9.79;77.66;101521.09;10391606;28;20037;-76
2020/12/18 17:58:38;;;;;;;5.00;2.53;;;;;;;9.62;78.36;101522.09;10375646;28;20099;-76
2020/12/18 18:03:39;;;;;;;7.40;2.95;;;;;;;9.71;78.22;101522.78;10406166;28;20046;-77
2020/12/18 18:08:39;;;;;;;8.43;3.65;;;;;;;9.74;77.97;101522.09;10366228;28;20057;-76
2020/12/18 18:13:40;;;;;;;7.03;3.40;;;;;;;9.69;77.67;101503.44;10388109;28;21063;-77
2020/12/18 18:18:42;;;;;;;5.65;2.45;;;;;;;9.81;77.26;101507.25;10383736;28;20060;-78
2020/12/18 18:23:43;;;;;;;4.80;2.38;;;;;;;9.83;77.91;101521.19;10351868;28;20428;-76
2020/12/18 18:28:46;;;;;;;6.93;2.85;;;;;;;9.57;77.92;101476.44;10384540;28;20062;-77
2020/12/18 18:33:47;;;;;;;11.27;2.90;;;;;;;9.56;78.08;101472.13;10396239;28;20309;-76
2020/12/18 18:38:47;;;;;;;5.78;2.55;;;;;;;9.82;78.28;101514.22;10392783;28;20441;-78
2020/12/18 18:43:48;;;;;;;5.25;2.63;;;;;;;9.34;78.08;101445.59;10387652;28;20026;-82
2020/12/18 18:48:49;;;;;;;6.38;2.90;;;;;;;9.75;77.90;101495.88;10368802;28;20413;-77
2020/12/18 18:53:49;;;;;;;6.45;2.67;;;;;;;9.57;78.03;101454.84;10399887;28;20107;-76
2020/12/18 18:58:50;;;;;;;6.03;3.42;;;;;;;9.70;77.98;101480.69;10387938;28;20045;-77
2020/12/18 19:03:50;;;;;;;4.22;2.90;;;;;;;9.69;78.54;101484.53;10383309;28;20042;-76
2020/12/18 19:08:51;;;;;;;7.85;3.45;;;;;;;9.43;78.92;101440.84;10386764;28;20061;-77
2020/12/18 19:13:51;;;;;;;5.25;2.92;;;;;;;9.45;79.25;101446.72;10399641;28;20052;-76
2020/12/18 19:18:52;;;;;;;6.90;3.17;;;;;;;9.52;79.54;101452.34;10389841;28;20207;-76
2020/12/18 19:23:56;;;;;;;11.18;3.20;;;;;;;9.40;78.89;101433.44;10358177;28;20168;-79
2020/12/18 19:29:00;;;;;;;6.88;2.78;;;;;;;8.73;78.96;101324.94;10388663;28;20606;-81
2020/12/18 19:34:01;;;;;;;7.43;2.92;;;;;;;9.56;78.86;101461.34;10389805;28;20053;-79
2020/12/18 19:39:02;;;;;;;8.95;3.30;;;;;;;9.57;78.71;101460.22;10382816;28;20102;-78
2020/12/18 19:44:07;;;;;;;5.40;3.00;;;;;;;9.48;78.94;101443.34;10363357;28;20049;-79
2020/12/18 19:49:08;;;;;;;9.20;3.50;;;;;;;9.42;79.65;101439.28;10346621;28;20057;-79
2020/12/18 19:54:08;;;;;;;6.00;2.78;;;;;;;9.28;79.34;101421.50;10385664;28;20044;-79
2020/12/18 19:59:09;;;;;;;9.10;3.72;;;;;;;9.40;79.30;101460.44;10377226;28;20037;-81
2020/12/18 20:04:09;;;;;;;8.13;3.50;;;;;;;9.21;78.84;101405.09;10395576;28;20037;-81
2020/12/18 20:09:10;;;;;;;7.85;3.60;;;;;;;8.99;78.86;101370.47;10364847;28;20046;-79
2020/12/18 20:14:11;;;;;;;7.03;3.05;;;;;;;9.09;78.93;101397.00;10339298;28;20535;-80
2020/12/18 20:19:11;;;;;;;5.43;3.35;;;;;;;9.13;79.03;101387.13;10345448;28;20123;-79
2020/12/18 20:24:12;;;;;;;8.20;3.58;;;;;;;9.17;78.69;101387.22;10331245;28;20040;-80
2020/12/18 20:29:12;;;;;;;7.25;3.95;;;;;;;9.20;79.00;101403.53;10356869;28;20038;-79
2020/12/18 20:34:13;;;;;;;7.00;3.67;;;;;;;9.07;78.88;101391.13;10332523;28;20088;-78
2020/12/18 20:39:14;;;;;;;9.90;4.72;;;;;;;9.20;78.85;101403.53;10343544;28;20430;-78
2020/12/18 20:44:14;;;;;;;8.98;3.35;;;;;;;9.34;78.91;101424.00;10333616;28;20049;-77
2020/12/18 20:49:18;;;;;;;8.45;3.35;;;;;;;8.80;78.79;101331.34;10326330;28;20080;-79
2020/12/18 20:54:18;;;;;;;5.60;3.00;;;;;;;8.51;78.55;101301.84;10338105;28;20051;-81
2020/12/18 20:59:19;;;;;;;6.03;3.40;;;;;;;9.14;78.77;101383.28;10323305;28;20485;-78
2020/12/18 21:04:19;;;;;;;10.35;4.03;;;;;;;9.43;78.43;101421.97;10327187;28;20045;-79
2020/12/18 21:09:29;;;;;;;6.22;4.07;;;;;;;9.40;78.32;101395.66;10322271;28;20147;-82
2020/12/18 21:14:39;;;;;;;7.40;3.85;;;;;;;8.78;78.61;101317.41;10333499;28;20049;-81
2020/12/18 21:19:42;;;;;;;5.30;3.40;;;;;;;8.61;79.09;101317.59;10326533;28;20806;-81
2020/12/18 21:24:43;;;;;;;8.50;3.47;;;;;;;8.77;79.17;101342.81;10325609;28;20087;-81
2020/12/18 21:29:45;;;;;;;8.23;3.92;;;;;;;8.95;78.94;101359.53;10357533;28;20064;-82
2020/12/18 21:34:47;;;;;;;6.00;2.90;;;;;;;8.60;79.55;101330.28;10306368;28;20119;-81
2020/12/18 21:39:49;;;;;;;7.68;4.05;;;;;;;9.21;78.98;101413.19;10357315;28;20048;-81
2020/12/18 21:44:49;;;;;;;9.13;4.00;;;;;;;8.87;80.07;101390.09;10316853;28;20503;-80
2020/12/18 21:49:50;;;;;;;6.80;4.03;;;;;;;8.93;80.49;101398.75;10355720;28;20049;-80
2020/12/18 21:54:50;;;;;;;10.63;5.68;;;;;;;8.44;81.33;101362.47;10357043;28;20099;-80
2020/12/18 21:59:51;;;;;;;12.52;5.95;;;;;;;8.73;81.91;101395.78;10342148;28;20954;-80
2020/12/18 22:04:52;;;;;;;12.68;7.55;;;;;;;7.67;82.46;101264.28;10340025;28;20131;-80
2020/12/18 22:09:56;;;;;;;13.13;7.60;;;;;;;8.49;83.20;101395.69;10323366;28;20136;-83
2020/12/18 22:14:57;;;;;;;9.98;4.80;;;;;;;8.31;83.90;101374.28;10304493;28;20118;-83
2020/12/18 22:19:57;;;;;;;11.40;6.00;;;;;;;8.28;84.16;101374.94;10357347;28;20056;-84
2020/12/18 22:25:00;;;;;;;7.70;5.05;;;;;;;8.31;84.03;101379.66;10341231;28;20054;-83
2020/12/18 22:30:01;;;;;;;9.30;5.50;;;;;;;7.91;84.46;101322.81;10349754;28;20946;-81
2020/12/18 22:35:01;;;;;;;11.18;7.15;;;;;;;8.22;84.97;101373.56;10360724;28;20046;-81
2020/12/18 22:40:04;;;;;;;8.93;5.15;;;;;;;7.90;85.96;101335.50;10357564;28;20045;-82
2020/12/18 22:45:05;;;;;;;8.93;5.22;;;;;;;8.05;86.44;101361.03;10327172;28;20070;-75
2020/12/18 22:50:06;;;;;;;9.70;6.15;;;;;;;7.79;86.97;101318.16;10342745;28;20045;-78
2020/12/18 22:55:07;;;;;;;10.15;5.30;;;;;;;7.87;87.22;101333.44;10342037;28;20387;-75
2020/12/18 23:00:20;;;;;;;9.03;5.03;;;;;;;7.24;87.82;101235.75;10358564;28;20050;-76